Observation data for Jayton on 05/15/2018      Previous  Date  Next       Current Mesonet Observations  Soil Data  Daily Summary Page  Observations in Plain Language
KJTS 150500Z 14008KT 23/14 A299 RMK A01 T02300144  RH  061%=      5-min Rain = 0
KJTS 150505Z 13008KT 23/15 A299 RMK A01 T02310147  RH  062%=      5-min Rain = 0
KJTS 150510Z 14009KT 23/15 A299 RMK A01 T02320148  RH  062%=      5-min Rain = 0
KJTS 150515Z 15008KT 23/15 A299 RMK A01 T02330150  RH  063%=      5-min Rain = 0
KJTS 150520Z 16007KT 23/15 A299 RMK A01 T02330154  RH  064%=      5-min Rain = 0
KJTS 150525Z 15008KT 23/16 A299 RMK A01 T02310158  RH  066%=      5-min Rain = 0
KJTS 150530Z 15007KT 23/16 A299 RMK A01 T02280162  RH  069%=      5-min Rain = 0
KJTS 150535Z 17007KT 23/17 A299 RMK A01 T02260166  RH  072%=      5-min Rain = 0
KJTS 150540Z 18008KT 23/17 A299 RMK A01 T02250170  RH  075%=      5-min Rain = 0
KJTS 150545Z 18011KT 23/17 A2991 RMK A01 T02270172  RH  075%=      5-min Rain = 0
KJTS 150550Z 19011G17KT 23/17 A2991 RMK A01 T02300168  RH  071%=      5-min Rain = 0
KJTS 150555Z 19013G18KT 23/16 A2991 RMK A01 T02310157  RH  066%=      5-min Rain = 0
KJTS 150600Z 19013G19KT 23/15 A2991 RMK A01 T02310146  RH  061%=      5-min Rain = 0
KJTS 150605Z 20009KT 23/15 A2991 RMK A01 T02290145  RH  062%=      5-min Rain = 0
KJTS 150610Z 20008KT 23/14 A2991 RMK A01 T02260144  RH  063%=      5-min Rain = 0
KJTS 150615Z 21007KT 22/15 A299 RMK A01 T02240145  RH  063%=      5-min Rain = 0
KJTS 150620Z 21007KT 22/14 A2991 RMK A01 T02220143  RH  064%=      5-min Rain = 0
KJTS 150625Z 21007KT 22/14 A2991 RMK A01 T02210142  RH  063%=      5-min Rain = 0
KJTS 150630Z 21008KT 22/14 A2991 RMK A01 T02200140  RH  063%=      5-min Rain = 0
KJTS 150635Z 21008KT 22/14 A2991 RMK A01 T02190139  RH  063%=      5-min Rain = 0
KJTS 150640Z 21007KT 22/14 A2991 RMK A01 T02180138  RH  063%=      5-min Rain = 0
KJTS 150645Z 20008KT 22/14 A2991 RMK A01 T02170136  RH  062%=      5-min Rain = 0
KJTS 150650Z 19007KT 22/14 A2991 RMK A01 T02150137  RH  063%=      5-min Rain = 0
KJTS 150655Z 19007KT 21/14 A2991 RMK A01 T02120137  RH  065%=      5-min Rain = 0
KJTS 150700Z 20006KT 21/14 A2991 RMK A01 T02110137  RH  065%=      5-min Rain = 0
KJTS 150705Z 21006KT 21/14 A2991 RMK A01 T02110136  RH  065%=      5-min Rain = 0
KJTS 150710Z 27003KT 21/14 A2992 RMK A01 T02090136  RH  065%=      5-min Rain = 0
KJTS 150715Z 35007KT 21/14 A2994 RMK A01 T02070138  RH  067%=      5-min Rain = 0
KJTS 150720Z 00009KT 21/14 A2995 RMK A01 T02060140  RH  069%=      5-min Rain = 0
KJTS 150725Z 01006KT 21/14 A2995 RMK A01 T02060139  RH  068%=      5-min Rain = 0
KJTS 150730Z 03002KT 21/14 A2994 RMK A01 T02070137  RH  067%=      5-min Rain = 0
KJTS 150735Z 00001KT 21/14 A2994 RMK A01 T02070136  RH  066%=      5-min Rain = 0
KJTS 150740Z 36003KT 21/14 A2994 RMK A01 T02050140  RH  069%=      5-min Rain = 0
KJTS 150745Z 04004KT 21/14 A2995 RMK A01 T02050136  RH  067%=      5-min Rain = 0
KJTS 150750Z 06005KT 21/14 A2995 RMK A01 T02050139  RH  068%=      5-min Rain = 0
KJTS 150755Z 18002KT 21/13 A2994 RMK A01 T02060134  RH  066%=      5-min Rain = 0
KJTS 150800Z 26003KT 21/13 A2994 RMK A01 T02070134  RH  066%=      5-min Rain = 0
KJTS 150805Z 28004KT 20/14 A2993 RMK A01 T02040138  RH  068%=      5-min Rain = 0
KJTS 150810Z 28002KT 20/14 A2993 RMK A01 T02030138  RH  069%=      5-min Rain = 0
KJTS 150815Z 29003KT 20/14 A2993 RMK A01 T02020140  RH  070%=      5-min Rain = 0
KJTS 150820Z 28003KT 20/14 A2993 RMK A01 T02010139  RH  071%=      5-min Rain = 0
KJTS 150825Z 27003KT 20/14 A2992 RMK A01 T02000139  RH  071%=      5-min Rain = 0
KJTS 150830Z 26003KT 20/14 A2992 RMK A01 T02000139  RH  071%=      5-min Rain = 0
KJTS 150835Z 25002KT 20/14 A2992 RMK A01 T01990137  RH  070%=      5-min Rain = 0
KJTS 150840Z 24003KT 20/14 A2992 RMK A01 T02000136  RH  069%=      5-min Rain = 0
KJTS 150845Z 24006KT 20/14 A2991 RMK A01 T01990138  RH  070%=      5-min Rain = 0
KJTS 150850Z 24006KT 20/14 A2991 RMK A01 T01970138  RH  072%=      5-min Rain = 0
KJTS 150855Z 22006KT 20/14 A2991 RMK A01 T01970137  RH  071%=      5-min Rain = 0
KJTS 150900Z 22005KT 20/14 A2991 RMK A01 T01980137  RH  071%=      5-min Rain = 0
KJTS 150905Z 22005KT 20/14 A2991 RMK A01 T01970138  RH  072%=      5-min Rain = 0
KJTS 150910Z 22004KT 20/14 A2991 RMK A01 T01960137  RH  072%=      5-min Rain = 0
KJTS 150915Z 23005KT 20/14 A2991 RMK A01 T01960137  RH  071%=      5-min Rain = 0
KJTS 150920Z 23005KT 20/14 A299 RMK A01 T01960136  RH  071%=      5-min Rain = 0
KJTS 150925Z 23006KT 20/14 A2991 RMK A01 T01970136  RH  071%=      5-min Rain = 0
KJTS 150930Z 24005KT 20/14 A299 RMK A01 T01960136  RH  071%=      5-min Rain = 0
KJTS 150935Z 23005KT 20/14 A299 RMK A01 T01960136  RH  071%=      5-min Rain = 0
KJTS 150940Z 24006KT 20/14 A299 RMK A01 T01960135  RH  071%=      5-min Rain = 0
KJTS 150945Z 24006KT 19/14 A299 RMK A01 T01940137  RH  073%=      5-min Rain = 0
KJTS 150950Z 24005KT 19/14 A2989 RMK A01 T01920137  RH  073%=      5-min Rain = 0
KJTS 150955Z 24006KT 19/14 A2989 RMK A01 T01910138  RH  074%=      5-min Rain = 0
KJTS 151000Z 24006KT 19/14 A2989 RMK A01 T01910138  RH  074%=      5-min Rain = 0
KJTS 151005Z 25006KT 19/14 A2989 RMK A01 T01910138  RH  075%=      5-min Rain = 0
KJTS 151010Z 25006KT 19/14 A2989 RMK A01 T01900139  RH  075%=      5-min Rain = 0
KJTS 151015Z 25005KT 19/14 A2989 RMK A01 T01890139  RH  076%=      5-min Rain = 0
KJTS 151020Z 26005KT 19/14 A2989 RMK A01 T01890140  RH  076%=      5-min Rain = 0
KJTS 151025Z 26005KT 19/14 A2988 RMK A01 T01890140  RH  076%=      5-min Rain = 0
KJTS 151030Z 25005KT 19/14 A2988 RMK A01 T01880140  RH  077%=      5-min Rain = 0
KJTS 151035Z 25005KT 19/14 A2988 RMK A01 T01880140  RH  077%=      5-min Rain = 0
KJTS 151040Z 24005KT 19/14 A2988 RMK A01 T01890140  RH  077%=      5-min Rain = 0
KJTS 151045Z 24005KT 19/14 A2988 RMK A01 T01890140  RH  076%=      5-min Rain = 0
KJTS 151050Z 23004KT 19/14 A2988 RMK A01 T01900140  RH  076%=      5-min Rain = 0
KJTS 151055Z 22003KT 19/14 A2989 RMK A01 T01910140  RH  075%=      5-min Rain = 0
KJTS 151100Z 21003KT 19/14 A2989 RMK A01 T01910141  RH  076%=      5-min Rain = 0
KJTS 151105Z 20002KT 19/14 A2989 RMK A01 T01910140  RH  076%=      5-min Rain = 0
KJTS 151110Z 19003KT 19/14 A2989 RMK A01 T01900141  RH  076%=      5-min Rain = 0
KJTS 151115Z 20003KT 19/14 A2989 RMK A01 T01880142  RH  078%=      5-min Rain = 0
KJTS 151120Z 18003KT 19/14 A2989 RMK A01 T01870142  RH  078%=      5-min Rain = 0
KJTS 151125Z 18004KT 19/14 A2989 RMK A01 T01850143  RH  080%=      5-min Rain = 0
KJTS 151130Z 20004KT 18/14 A2989 RMK A01 T01820144  RH  082%=      5-min Rain = 0
KJTS 151135Z 21005KT 18/15 A2989 RMK A01 T01820145  RH  083%=      5-min Rain = 0
KJTS 151140Z 22004KT 18/15 A2989 RMK A01 T01810145  RH  083%=      5-min Rain = 0
KJTS 151145Z 24005KT 18/14 A2989 RMK A01 T01810144  RH  082%=      5-min Rain = 0
KJTS 151150Z 25005KT 18/14 A2989 RMK A01 T01820143  RH  082%=      5-min Rain = 0
KJTS 151155Z 24005KT 18/15 A299 RMK A01 T01820145  RH  082%=      5-min Rain = 0
KJTS 151200Z 24005KT 18/15 A299 RMK A01 T01830145  RH  082%=      5-min Rain = 0
KJTS 151205Z 24006KT 18/15 A299 RMK A01 T01840146  RH  082%=      5-min Rain = 0
KJTS 151210Z 23006KT 19/15 A299 RMK A01 T01850145  RH  081%=      5-min Rain = 0
KJTS 151215Z 22006KT 19/15 A299 RMK A01 T01860147  RH  081%=      5-min Rain = 0
KJTS 151220Z 22007KT 19/15 A299 RMK A01 T01870147  RH  081%=      5-min Rain = 0
KJTS 151225Z 22007KT 19/15 A299 RMK A01 T01870147  RH  081%=      5-min Rain = 0
KJTS 151230Z 23006KT 19/15 A2991 RMK A01 T01880145  RH  080%=      5-min Rain = 0
KJTS 151235Z 21004KT 19/15 A2992 RMK A01 T01900146  RH  079%=      5-min Rain = 0
KJTS 151240Z 08005KT 19/15 A2993 RMK A01 T01910148  RH  080%=      5-min Rain = 0
KJTS 151245Z 08011KT 19/15 A2994 RMK A01 T01910149  RH  080%=      5-min Rain = 0
KJTS 151250Z 10007G13KT 19/15 A2995 RMK A01 T01910146  RH  079%=      5-min Rain = 0
KJTS 151255Z 08008KT 19/15 A2996 RMK A01 T01940146  RH  077%=      5-min Rain = 0
KJTS 151300Z 07011KT 20/15 A2996 RMK A01 T01980148  RH  076%=      5-min Rain = 0
KJTS 151305Z 08010G15KT 20/14 A2996 RMK A01 T02000143  RH  073%=      5-min Rain = 0
KJTS 151310Z 11006KT 20/14 A2996 RMK A01 T02030144  RH  072%=      5-min Rain = 0
KJTS 151315Z 10006KT 21/15 A2996 RMK A01 T02080146  RH  071%=      5-min Rain = 0
KJTS 151320Z 07007KT 21/15 A2997 RMK A01 T02140147  RH  069%=      5-min Rain = 0
KJTS 151325Z 09009KT 22/15 A2997 RMK A01 T02190147  RH  067%=      5-min Rain = 0
KJTS 151330Z 10007KT 22/15 A2996 RMK A01 T02220147  RH  065%=      5-min Rain = 0
KJTS 151335Z 11004G10KT 23/15 A2997 RMK A01 T02250147  RH  064%=      5-min Rain = 0
KJTS 151340Z 08009KT 23/15 A2997 RMK A01 T02260146  RH  063%=      5-min Rain = 0
KJTS 151345Z 10008KT 23/14 A2997 RMK A01 T02270144  RH  062%=      5-min Rain = 0
KJTS 151350Z 10006KT 23/14 A2997 RMK A01 T02280143  RH  061%=      5-min Rain = 0
KJTS 151355Z 09009KT 23/14 A2997 RMK A01 T02280142  RH  061%=      5-min Rain = 0
KJTS 151400Z 08009KT 23/14 A2997 RMK A01 T02270141  RH  061%=      5-min Rain = 0
KJTS 151405Z 10008KT 23/14 A2997 RMK A01 T02270141  RH  061%=      5-min Rain = 0
KJTS 151410Z 10007KT 23/14 A2997 RMK A01 T02310143  RH  060%=      5-min Rain = 0
KJTS 151415Z 10007KT 23/14 A2997 RMK A01 T02290142  RH  061%=      5-min Rain = 0
KJTS 151420Z 12005KT 23/14 A2996 RMK A01 T02260143  RH  062%=      5-min Rain = 0
KJTS 151425Z 13006KT 23/14 A2997 RMK A01 T02260144  RH  062%=      5-min Rain = 0
KJTS 151430Z 11008KT 23/14 A2997 RMK A01 T02290142  RH  061%=      5-min Rain = 0
KJTS 151435Z 11008KT 23/14 A2997 RMK A01 T02320140  RH  059%=      5-min Rain = 0
KJTS 151440Z 11008KT 23/14 A2997 RMK A01 T02340141  RH  058%=      5-min Rain = 0
KJTS 151445Z 11009KT 23/14 A2998 RMK A01 T02330142  RH  059%=      5-min Rain = 0
KJTS 151450Z 11007KT 23/14 A2998 RMK A01 T02340143  RH  059%=      5-min Rain = 0
KJTS 151455Z 11008KT 23/14 A2998 RMK A01 T02340144  RH  060%=      5-min Rain = 0
KJTS 151500Z 09006KT 24/14 A2998 RMK A01 T02350144  RH  059%=      5-min Rain = 0
KJTS 151505Z 10005KT 24/15 A2998 RMK A01 T02370145  RH  059%=      5-min Rain = 0
KJTS 151510Z 10007KT 24/15 A2998 RMK A01 T02400149  RH  059%=      5-min Rain = 0
KJTS 151515Z 10006KT 24/15 A2998 RMK A01 T02410147  RH  058%=      5-min Rain = 0
KJTS 151520Z 12003KT 24/15 A2998 RMK A01 T02400146  RH  058%=      5-min Rain = 0
KJTS 151525Z 10004KT 24/15 A2998 RMK A01 T02420148  RH  058%=      5-min Rain = 0
KJTS 151530Z 08005KT 24/15 A2999 RMK A01 T02420149  RH  058%=      5-min Rain = 0
KJTS 151535Z 34003KT 24/15 A2999 RMK A01 T02430148  RH  058%=      5-min Rain = 0
KJTS 151540Z 05001KT 25/15 A2999 RMK A01 T02450147  RH  057%=      5-min Rain = 0
KJTS 151545Z 01002KT 25/15 A30 RMK A01 T02480148  RH  056%=      5-min Rain = 0
KJTS 151550Z 04004KT 25/15 A30 RMK A01 T02470148  RH  056%=      5-min Rain = 0
KJTS 151555Z 04001KT 25/15 A30 RMK A01 T02490147  RH  055%=      5-min Rain = 0
KJTS 151600Z 00004KT 25/15 A30 RMK A01 T02500149  RH  056%=      5-min Rain = 0
KJTS 151605Z 03002KT 25/15 A30 RMK A01 T02530151  RH  056%=      5-min Rain = 0
KJTS 151610Z 04002KT 26/15 A30 RMK A01 T02550148  RH  054%=      5-min Rain = 0
KJTS 151615Z 06003KT 26/15 A30 RMK A01 T02570151  RH  055%=      5-min Rain = 0
KJTS 151620Z 10005KT 26/15 A30 RMK A01 T02600153  RH  054%=      5-min Rain = 0
KJTS 151625Z 06005KT 26/15 A30 RMK A01 T02590153  RH  055%=      5-min Rain = 0
KJTS 151630Z 04004KT 26/15 A30 RMK A01 T02570148  RH  053%=      5-min Rain = 0
KJTS 151635Z 09004KT 26/15 A30 RMK A01 T02580152  RH  054%=      5-min Rain = 0
KJTS 151640Z 07004G9KT 26/15 A30 RMK A01 T02620153  RH  053%=      5-min Rain = 0
KJTS 151645Z 03004KT 26/15 A2999 RMK A01 T02610152  RH  053%=      5-min Rain = 0
KJTS 151650Z 05005KT 26/15 A30 RMK A01 T02600151  RH  053%=      5-min Rain = 0
KJTS 151655Z 13005KT 26/15 A2999 RMK A01 T02620152  RH  053%=      5-min Rain = 0
KJTS 151700Z 12005KT 27/16 A2999 RMK A01 T02670155  RH  053%=      5-min Rain = 0
KJTS 151705Z 07006KT 27/15 A2999 RMK A01 T02670154  RH  052%=      5-min Rain = 0
KJTS 151710Z 11005G10KT 27/15 A2999 RMK A01 T02670154  RH  052%=      5-min Rain = 0
KJTS 151715Z 11007KT 27/16 A2999 RMK A01 T02720158  RH  052%=      5-min Rain = 0
KJTS 151720Z 10005KT 28/16 A2999 RMK A01 T02760157  RH  051%=      5-min Rain = 0
KJTS 151725Z 10005KT 27/15 A2999 RMK A01 T02730153  RH  050%=      5-min Rain = 0
KJTS 151730Z 09004KT 27/16 A2999 RMK A01 T02740158  RH  051%=      5-min Rain = 0
KJTS 151735Z 10007KT 28/15 A2999 RMK A01 T02770154  RH  049%=      5-min Rain = 0
KJTS 151740Z 08004G9KT 28/15 A2998 RMK A01 T02770154  RH  049%=      5-min Rain = 0
KJTS 151745Z 09008KT 28/15 A2998 RMK A01 T02780154  RH  049%=      5-min Rain = 0
KJTS 151750Z 13008G13KT 28/16 A2998 RMK A01 T02790155  RH  049%=      5-min Rain = 0
KJTS 151755Z 15003KT 28/15 A2998 RMK A01 T02830151  RH  046%=      5-min Rain = 0
KJTS 151800Z 13006KT 29/15 A2998 RMK A01 T02890151  RH  045%=      5-min Rain = 0
KJTS 151805Z 09004KT 29/15 A2998 RMK A01 T02860150  RH  045%=      5-min Rain = 0
KJTS 151810Z 08003KT 29/15 A2998 RMK A01 T02860150  RH  045%=      5-min Rain = 0
KJTS 151815Z 07005KT 29/15 A2998 RMK A01 T02860149  RH  045%=      5-min Rain = 0
KJTS 151820Z 12006KT 29/15 A2998 RMK A01 T02880151  RH  045%=      5-min Rain = 0
KJTS 151825Z 11002G8KT 29/15 A2998 RMK A01 T02900148  RH  044%=      5-min Rain = 0
KJTS 151830Z 04005KT 29/15 A2998 RMK A01 T02920150  RH  044%=      5-min Rain = 0
KJTS 151835Z 09005KT 29/15 A2997 RMK A01 T02900148  RH  044%=      5-min Rain = 0
KJTS 151840Z 05002G9KT 29/15 A2997 RMK A01 T02910149  RH  044%=      5-min Rain = 0
KJTS 151845Z 07005KT 29/15 A2997 RMK A01 T02940149  RH  043%=      5-min Rain = 0
KJTS 151850Z 10006G11KT 29/15 A2997 RMK A01 T02940148  RH  043%=      5-min Rain = 0
KJTS 151855Z 08002KT 30/15 A2997 RMK A01 T02950149  RH  043%=      5-min Rain = 0
KJTS 151900Z 05004KT 30/15 A2997 RMK A01 T02980147  RH  042%=      5-min Rain = 0
KJTS 151905Z 10003G8KT 30/15 A2996 RMK A01 T02970145  RH  041%=      5-min Rain = 0
KJTS 151910Z 04004KT 30/15 A2996 RMK A01 T02990147  RH  041%=      5-min Rain = 0
KJTS 151915Z 01003G9KT 30/14 A2996 RMK A01 T02990144  RH  040%=      5-min Rain = 0
KJTS 151920Z 07005KT 30/15 A2996 RMK A01 T03010145  RH  040%=      5-min Rain = 0
KJTS 151925Z 07004KT 30/14 A2996 RMK A01 T03030139  RH  038%=      5-min Rain = 0
KJTS 151930Z 01002KT 30/14 A2995 RMK A01 T03030139  RH  038%=      5-min Rain = 0
KJTS 151935Z 32002KT 30/13 A2995 RMK A01 T03040132  RH  036%=      5-min Rain = 0
KJTS 151940Z 31004KT 31/14 A2995 RMK A01 T03070136  RH  037%=      5-min Rain = 0
KJTS 151945Z 03004KT 31/14 A2995 RMK A01 T03100135  RH  036%=      5-min Rain = 0
KJTS 151950Z 05003KT 31/13 A2995 RMK A01 T03100131  RH  035%=      5-min Rain = 0
KJTS 151955Z 02003KT 31/13 A2994 RMK A01 T03100132  RH  035%=      5-min Rain = 0
KJTS 152000Z 02004KT 31/13 A2994 RMK A01 T03140130  RH  034%=      5-min Rain = 0
KJTS 152005Z 03002KT 31/13 A2994 RMK A01 T03120131  RH  034%=      5-min Rain = 0
KJTS 152010Z 33001KT 32/13 A2993 RMK A01 T03170134  RH  034%=      5-min Rain = 0
KJTS 152015Z 10002G9KT 32/14 A2993 RMK A01 T03200136  RH  034%=      5-min Rain = 0
KJTS 152020Z 07007KT 32/14 A2993 RMK A01 T03210140  RH  035%=      5-min Rain = 0
KJTS 152025Z 10005KT 32/14 A2993 RMK A01 T03200135  RH  034%=      5-min Rain = 0
KJTS 152030Z 26004KT 32/13 A2993 RMK A01 T03190129  RH  033%=      5-min Rain = 0
KJTS 152035Z 33003KT 32/13 A2993 RMK A01 T03180130  RH  033%=      5-min Rain = 0
KJTS 152040Z 03006KT 32/13 A2992 RMK A01 T03220128  RH  032%=      5-min Rain = 0
KJTS 152045Z 01003KT 32/13 A2992 RMK A01 T03220127  RH  032%=      5-min Rain = 0
KJTS 152050Z 05005KT 33/13 A2992 RMK A01 T03260129  RH  031%=      5-min Rain = 0
KJTS 152055Z 02002KT 33/13 A2992 RMK A01 T03260127  RH  031%=      5-min Rain = 0
KJTS 152100Z 03003KT 33/13 A2991 RMK A01 T03300128  RH  031%=      5-min Rain = 0
KJTS 152105Z 00004KT 33/13 A2991 RMK A01 T03260127  RH  031%=      5-min Rain = 0
KJTS 152110Z 09005G10KT 33/13 A299 RMK A01 T03250130  RH  032%=      5-min Rain = 0
KJTS 152115Z 10007G13KT 33/13 A2989 RMK A01 T03280133  RH  032%=      5-min Rain = 0
KJTS 152120Z 12007KT 33/13 A2989 RMK A01 T03300130  RH  031%=      5-min Rain = 0
KJTS 152125Z 12006G11KT 33/13 A2989 RMK A01 T03300131  RH  031%=      5-min Rain = 0
KJTS 152130Z 08008KT 33/13 A2988 RMK A01 T03300131  RH  031%=      5-min Rain = 0
KJTS 152135Z 05005G10KT 33/13 A2988 RMK A01 T03280128  RH  031%=      5-min Rain = 0
KJTS 152140Z 11009KT 33/13 A2988 RMK A01 T03290130  RH  031%=      5-min Rain = 0
KJTS 152145Z 12010G16KT 33/13 A2987 RMK A01 T03320130  RH  031%=      5-min Rain = 0
KJTS 152150Z 10011G17KT 33/13 A2987 RMK A01 T03320132  RH  031%=      5-min Rain = 0
KJTS 152155Z 11012G18KT 32/13 A2987 RMK A01 T03240129  RH  032%=      5-min Rain = 0
KJTS 152200Z 13005KT 32/13 A2987 RMK A01 T03180126  RH  032%=      5-min Rain = 0
KJTS 152205Z 12005KT 32/13 A2988 RMK A01 T03170128  RH  033%=      5-min Rain = 0
KJTS 152210Z 12006KT 32/13 A2988 RMK A01 T03170127  RH  033%=      5-min Rain = 0
KJTS 152215Z 12006KT 32/13 A2988 RMK A01 T03170130  RH  033%=      5-min Rain = 0
KJTS 152220Z 12006KT 32/13 A2988 RMK A01 T03160129  RH  033%=      5-min Rain = 0
KJTS 152225Z 12007KT 31/13 A2988 RMK A01 T03140127  RH  033%=      5-min Rain = 0
KJTS 152230Z 12006KT 31/13 A2988 RMK A01 T03130132  RH  035%=      5-min Rain = 0
KJTS 152235Z 13006KT 31/13 A2988 RMK A01 T03120131  RH  035%=      5-min Rain = 0
KJTS 152240Z 15006KT 31/13 A2988 RMK A01 T03100132  RH  035%=      5-min Rain = 0
KJTS 152245Z 14007KT 31/14 A2988 RMK A01 T03090135  RH  036%=      5-min Rain = 0
KJTS 152250Z 14007KT 31/14 A2988 RMK A01 T03080137  RH  037%=      5-min Rain = 0
KJTS 152255Z 13007KT 31/14 A2987 RMK A01 T03070137  RH  037%=      5-min Rain = 0
KJTS 152300Z 12008KT 31/14 A2987 RMK A01 T03050139  RH  038%=      5-min Rain = 0
KJTS 152305Z 11006KT 30/14 A2987 RMK A01 T03030142  RH  039%=      5-min Rain = 0
KJTS 152310Z 09005KT 30/14 A2987 RMK A01 T03030142  RH  039%=      5-min Rain = 0
KJTS 152315Z 10004KT 30/15 A2987 RMK A01 T03020145  RH  040%=      5-min Rain = 0
KJTS 152320Z 13006KT 30/15 A2986 RMK A01 T03000148  RH  041%=      5-min Rain = 0
KJTS 152325Z 13006KT 30/15 A2986 RMK A01 T03000145  RH  041%=      5-min Rain = 0
KJTS 152330Z 14003KT 30/14 A2987 RMK A01 T03000143  RH  040%=      5-min Rain = 0
KJTS 152335Z 02002KT 30/14 A2987 RMK A01 T03000144  RH  040%=      5-min Rain = 0
KJTS 152340Z 04005KT 30/15 A2988 RMK A01 T03000145  RH  041%=      5-min Rain = 0
KJTS 152345Z 08010G15KT 30/14 A2988 RMK A01 T03010143  RH  040%=      5-min Rain = 0
KJTS 152350Z 11018G50KT 30/13 A2987 RMK A01 T03020133  RH  037%=      5-min Rain = 0
KJTS 152355Z 14010G22KT 31/04 A2988 RMK A01 T03130041  RH  018%=      5-min Rain = 0
KJTS 160000Z 21007G18KT 32/03 A2988 RMK A01 T03200031  RH  016%=      5-min Rain = 0
KJTS 160005Z 16006G18KT 32/04 A2989 RMK A01 T03210039  RH  017%=      5-min Rain = 0
KJTS 160010Z 16007G18KT 32/04 A2988 RMK A01 T03210040  RH  017%=      5-min Rain = 0
KJTS 160015Z 16013G19KT 32/05 A2987 RMK A01 T03180045  RH  018%=      5-min Rain = 0
KJTS 160020Z 15013G20KT 32/05 A2986 RMK A01 T03170054  RH  020%=      5-min Rain = 0
KJTS 160025Z 17011G19KT 31/05 A2985 RMK A01 T03100051  RH  020%=      5-min Rain = 0
KJTS 160030Z 16010G16KT 31/05 A2986 RMK A01 T03090050  RH  020%=      5-min Rain = 0
KJTS 160035Z 16008G14KT 31/05 A2987 RMK A01 T03090047  RH  020%=      5-min Rain = 0
KJTS 160040Z 18007KT 31/04 A2987 RMK A01 T03100041  RH  019%=      5-min Rain = 0
KJTS 160045Z 27007KT 31/03 A2986 RMK A01 T03110034  RH  018%=      5-min Rain = 0
KJTS 160050Z 23007G14KT 31/03 A2986 RMK A01 T03120031  RH  017%=      5-min Rain = 0
KJTS 160055Z 04005KT 31/03 A2984 RMK A01 T03090030  RH  017%=      5-min Rain = 0
KJTS 160100Z 00003KT 31/03 A2985 RMK A01 T03110031  RH  017%=      5-min Rain = 0
KJTS 160105Z 06010G16KT 31/06 A2986 RMK A01 T03060062  RH  022%=      5-min Rain = 0
KJTS 160110Z 06011G18KT 30/08 A2986 RMK A01 T02960075  RH  026%=      5-min Rain = 0
KJTS 160115Z 06010G15KT 29/08 A2986 RMK A01 T02900084  RH  028%=      5-min Rain = 0
KJTS 160120Z 07011KT 28/09 A2986 RMK A01 T02840088  RH  030%=      5-min Rain = 0
KJTS 160125Z 06008G14KT 28/09 A2986 RMK A01 T02830088  RH  030%=      5-min Rain = 0
KJTS 160130Z 08012KT 28/09 A2985 RMK A01 T02770093  RH  032%=      5-min Rain = 0
KJTS 160135Z 09011KT 27/10 A2985 RMK A01 T02710099  RH  035%=      5-min Rain = 0
KJTS 160140Z 09011KT 27/10 A2986 RMK A01 T02670101  RH  036%=      5-min Rain = 0
KJTS 160145Z 08012KT 26/10 A2987 RMK A01 T02640103  RH  038%=      5-min Rain = 0
KJTS 160150Z 10016G21KT 26/12 A2987 RMK A01 T02610118  RH  042%=      5-min Rain = 0
KJTS 160155Z 10019G25KT 26/12 A2987 RMK A01 T02610124  RH  044%=      5-min Rain = 0
KJTS 160200Z 10016G22KT 26/13 A2988 RMK A01 T02590129  RH  046%=      5-min Rain = 0
KJTS 160205Z 10013G18KT 26/14 A2989 RMK A01 T02550135  RH  050%=      5-min Rain = 0
KJTS 160210Z 11010G17KT 25/14 A299 RMK A01 T02490141  RH  053%=      5-min Rain = 0
KJTS 160215Z 12013G22KT 25/14 A299 RMK A01 T02470141  RH  054%=      5-min Rain = 0
KJTS 160220Z 13011G16KT 25/14 A2991 RMK A01 T02450140  RH  054%=      5-min Rain = 0
KJTS 160225Z 12011KT 24/14 A2992 RMK A01 T02440139  RH  054%=      5-min Rain = 0
KJTS 160230Z 13009KT 24/14 A2992 RMK A01 T02410139  RH  055%=      5-min Rain = 0
KJTS 160235Z 12009KT 24/14 A2993 RMK A01 T02390138  RH  055%=      5-min Rain = 0
KJTS 160240Z 13008KT 24/14 A2993 RMK A01 T02360137  RH  056%=      5-min Rain = 0
KJTS 160245Z 12011KT 24/13 A2994 RMK A01 T02360131  RH  054%=      5-min Rain = 0
KJTS 160250Z 12009KT 24/13 A2995 RMK A01 T02350132  RH  055%=      5-min Rain = 0
KJTS 160255Z 13009KT 23/13 A2995 RMK A01 T02340130  RH  054%=      5-min Rain = 0
KJTS 160300Z 13010KT 23/13 A2995 RMK A01 T02330129  RH  054%=      5-min Rain = 0
KJTS 160305Z 12009KT 23/13 A2996 RMK A01 T02300130  RH  055%=      5-min Rain = 0
KJTS 160310Z 12010KT 23/13 A2996 RMK A01 T02270130  RH  056%=      5-min Rain = 0
KJTS 160315Z 12010KT 23/13 A2996 RMK A01 T02270129  RH  056%=      5-min Rain = 0
KJTS 160320Z 12010KT 23/13 A2996 RMK A01 T02260128  RH  056%=      5-min Rain = 0
KJTS 160325Z 11011KT 23/13 A2997 RMK A01 T02250130  RH  057%=      5-min Rain = 0
KJTS 160330Z 11010KT 23/13 A2997 RMK A01 T02250128  RH  057%=      5-min Rain = 0
KJTS 160335Z 13010KT 23/13 A2997 RMK A01 T02250127  RH  056%=      5-min Rain = 0
KJTS 160340Z 14010KT 23/13 A2997 RMK A01 T02250127  RH  056%=      5-min Rain = 0
KJTS 160345Z 15011KT 22/13 A2996 RMK A01 T02240127  RH  056%=      5-min Rain = 0
KJTS 160350Z 15010G15KT 22/13 A2997 RMK A01 T02240126  RH  056%=      5-min Rain = 0
KJTS 160355Z 15009G14KT 22/13 A2997 RMK A01 T02240126  RH  056%=      5-min Rain = 0
KJTS 160400Z 14007KT 22/13 A2998 RMK A01 T02240126  RH  056%=      5-min Rain = 0
KJTS 160405Z 13005KT 23/13 A2999 RMK A01 T02250127  RH  056%=      5-min Rain = 0
KJTS 160410Z 01005G11KT 22/13 A3002 RMK A01 T02240129  RH  057%=      5-min Rain = 0
KJTS 160415Z 36012G17KT 22/13 A3004 RMK A01 T02240131  RH  058%=      5-min Rain = 0
KJTS 160420Z 01014G21KT 23/14 A3004 RMK A01 T02270138  RH  060%=      5-min Rain = 0
KJTS 160425Z 03013G20KT 23/16 A3004 RMK A01 T02280160  RH  068%=      5-min Rain = 0
KJTS 160430Z 05012G19KT 23/16 A3003 RMK A01 T02250161  RH  071%=      5-min Rain = 0
KJTS 160435Z 04011G18KT 22/15 A3003 RMK A01 T02210151  RH  067%=      5-min Rain = 0
KJTS 160440Z 03010G18KT 21/15 A3003 RMK A01 T02140152  RH  071%=      5-min Rain = 0
KJTS 160445Z 03011G18KT 21/15 A3003 RMK A01 T02050148  RH  073%=      5-min Rain = 0
KJTS 160450Z 03011G16KT 20/15 A3003 RMK A01 T01970145  RH  075%=      5-min Rain = 0
KJTS 160455Z 04009KT 19/14 A3004 RMK A01 T01930144  RH  076%=      5-min Rain = 0

Page generated in 0.0129 seconds.